sensor_id;sensor_type;location;lat;lon;timestamp;pressure;altitude;pressure_sealevel;temperature
28905;BMP280;60848;53.884;11.446;2024-01-15T00:00:21;98714.28;;;4.04
28905;BMP280;60848;53.884;11.446;2024-01-15T00:02:51;98704.31;;;4.02
28905;BMP280;60848;53.884;11.446;2024-01-15T00:05:19;98706.91;;;4.02
28905;BMP280;60848;53.884;11.446;2024-01-15T00:07:48;98693.59;;;4.00
28905;BMP280;60848;53.884;11.446;2024-01-15T00:10:16;98692.84;;;4.00
28905;BMP280;60848;53.884;11.446;2024-01-15T00:12:44;98677.34;;;4.00
28905;BMP280;60848;53.884;11.446;2024-01-15T00:15:13;98679.53;;;3.98
28905;BMP280;60848;53.884;11.446;2024-01-15T00:17:42;98674.75;;;3.96
28905;BMP280;60848;53.884;11.446;2024-01-15T00:20:12;98669.19;;;3.94
28905;BMP280;60848;53.884;11.446;2024-01-15T00:22:40;98666.59;;;3.94
28905;BMP280;60848;53.884;11.446;2024-01-15T00:25:09;98661.78;;;3.93
28905;BMP280;60848;53.884;11.446;2024-01-15T00:27:38;98640.00;;;3.90
28905;BMP280;60848;53.884;11.446;2024-01-15T00:30:07;98648.13;;;3.89
28905;BMP280;60848;53.884;11.446;2024-01-15T00:32:35;98636.28;;;3.88
28905;BMP280;60848;53.884;11.446;2024-01-15T00:35:04;98644.81;;;3.88
28905;BMP280;60848;53.884;11.446;2024-01-15T00:37:35;98635.56;;;3.87
28905;BMP280;60848;53.884;11.446;2024-01-15T00:40:06;98634.78;;;3.83
28905;BMP280;60848;53.884;11.446;2024-01-15T00:42:35;98601.56;;;3.82
28905;BMP280;60848;53.884;11.446;2024-01-15T00:45:04;98616.66;;;3.80
28905;BMP280;60848;53.884;11.446;2024-01-15T00:47:35;98601.53;;;3.78
28905;BMP280;60848;53.884;11.446;2024-01-15T00:50:07;98606.69;;;3.75
28905;BMP280;60848;53.884;11.446;2024-01-15T00:52:37;98593.03;;;3.78
28905;BMP280;60848;53.884;11.446;2024-01-15T00:55:06;98584.53;;;3.77
28905;BMP280;60848;53.884;11.446;2024-01-15T00:57:34;98586.78;;;3.79
28905;BMP280;60848;53.884;11.446;2024-01-15T01:00:06;98574.25;;;3.81
28905;BMP280;60848;53.884;11.446;2024-01-15T01:02:36;98567.22;;;3.81
28905;BMP280;60848;53.884;11.446;2024-01-15T01:05:05;98569.84;;;3.85
28905;BMP280;60848;53.884;11.446;2024-01-15T01:07:37;98563.53;;;3.82
28905;BMP280;60848;53.884;11.446;2024-01-15T01:10:08;98549.88;;;3.85
28905;BMP280;60848;53.884;11.446;2024-01-15T01:12:37;98551.00;;;3.88
28905;BMP280;60848;53.884;11.446;2024-01-15T01:15:06;98542.56;;;3.91
28905;BMP280;60848;53.884;11.446;2024-01-15T01:17:35;98552.13;;;3.90
28905;BMP280;60848;53.884;11.446;2024-01-15T01:20:04;98542.91;;;3.93
28905;BMP280;60848;53.884;11.446;2024-01-15T01:22:35;98538.81;;;3.92
28905;BMP280;60848;53.884;11.446;2024-01-15T01:25:06;98538.81;;;3.92
28905;BMP280;60848;53.884;11.446;2024-01-15T01:27:35;98530.34;;;3.95
28905;BMP280;60848;53.884;11.446;2024-01-15T01:30:05;98531.81;;;3.96
28905;BMP280;60848;53.884;11.446;2024-01-15T01:32:34;98527.41;;;3.96
28905;BMP280;60848;53.884;11.446;2024-01-15T01:35:03;98524.06;;;3.96
28905;BMP280;60848;53.884;11.446;2024-01-15T01:37:32;98526.31;;;3.97
28905;BMP280;60848;53.884;11.446;2024-01-15T01:40:01;98524.44;;;3.98
28905;BMP280;60848;53.884;11.446;2024-01-15T01:42:31;98527.78;;;3.95
28905;BMP280;60848;53.884;11.446;2024-01-15T01:45:00;98513.00;;;3.95
28905;BMP280;60848;53.884;11.446;2024-01-15T01:47:28;98515.94;;;3.94
28905;BMP280;60848;53.884;11.446;2024-01-15T01:49:56;98509.69;;;3.95
28905;BMP280;60848;53.884;11.446;2024-01-15T01:52:25;98517.44;;;3.95
28905;BMP280;60848;53.884;11.446;2024-01-15T01:54:56;98505.97;;;3.92
28905;BMP280;60848;53.884;11.446;2024-01-15T01:57:27;98512.63;;;3.93
28905;BMP280;60848;53.884;11.446;2024-01-15T01:59:58;98519.28;;;3.94
28905;BMP280;60848;53.884;11.446;2024-01-15T02:02:37;98512.66;;;3.97
28905;BMP280;60848;53.884;11.446;2024-01-15T02:05:08;98520.75;;;3.95
28905;BMP280;60848;53.884;11.446;2024-01-15T02:07:36;98508.94;;;3.98
28905;BMP280;60848;53.884;11.446;2024-01-15T02:10:08;98507.47;;;3.97
28905;BMP280;60848;53.884;11.446;2024-01-15T02:12:37;98515.97;;;3.97
28905;BMP280;60848;53.884;11.446;2024-01-15T02:15:07;98505.97;;;3.96
28905;BMP280;60848;53.884;11.446;2024-01-15T02:17:56;98505.63;;;3.97
28905;BMP280;60848;53.884;11.446;2024-01-15T02:20:25;98494.91;;;3.95
28905;BMP280;60848;53.884;11.446;2024-01-15T02:23:05;98503.00;;;3.94
28905;BMP280;60848;53.884;11.446;2024-01-15T02:25:33;98492.31;;;3.92
28905;BMP280;60848;53.884;11.446;2024-01-15T02:28:03;98495.25;;;3.94
28905;BMP280;60848;53.884;11.446;2024-01-15T02:30:31;98489.75;;;3.95
28905;BMP280;60848;53.884;11.446;2024-01-15T02:33:00;98493.81;;;4.00
28905;BMP280;60848;53.884;11.446;2024-01-15T02:35:29;98494.19;;;3.98
28905;BMP280;60848;53.884;11.446;2024-01-15T02:37:57;98495.69;;;4.03
28905;BMP280;60848;53.884;11.446;2024-01-15T02:40:27;98474.63;;;4.04
28905;BMP280;60848;53.884;11.446;2024-01-15T02:42:56;98489.41;;;4.04
28905;BMP280;60848;53.884;11.446;2024-01-15T02:45:24;98483.13;;;4.05
28905;BMP280;60848;53.884;11.446;2024-01-15T02:47:52;98483.13;;;4.01
28905;BMP280;60848;53.884;11.446;2024-01-15T02:50:21;98472.78;;;4.01
28905;BMP280;60848;53.884;11.446;2024-01-15T02:52:49;98490.88;;;4.01
28905;BMP280;60848;53.884;11.446;2024-01-15T02:55:18;98484.97;;;4.01
28905;BMP280;60848;53.884;11.446;2024-01-15T02:57:48;98488.66;;;4.00
28905;BMP280;60848;53.884;11.446;2024-01-15T03:00:16;98480.16;;;3.99
28905;BMP280;60848;53.884;11.446;2024-01-15T03:02:45;98481.63;;;4.00
28905;BMP280;60848;53.884;11.446;2024-01-15T03:05:15;98488.66;;;4.00
28905;BMP280;60848;53.884;11.446;2024-01-15T03:07:43;98476.84;;;3.99
28905;BMP280;60848;53.884;11.446;2024-01-15T03:10:12;98490.84;;;3.98
28905;BMP280;60848;53.884;11.446;2024-01-15T03:12:40;98485.31;;;3.96
28905;BMP280;60848;53.884;11.446;2024-01-15T03:15:11;98486.03;;;3.96
28905;BMP280;60848;53.884;11.446;2024-01-15T03:17:41;98486.41;;;3.95
28905;BMP280;60848;53.884;11.446;2024-01-15T03:20:11;98491.22;;;3.96
28905;BMP280;60848;53.884;11.446;2024-01-15T03:22:39;98478.66;;;3.95
28905;BMP280;60848;53.884;11.446;2024-01-15T03:25:08;98479.75;;;3.94
28905;BMP280;60848;53.884;11.446;2024-01-15T03:27:38;98485.66;;;3.94
28905;BMP280;60848;53.884;11.446;2024-01-15T03:30:08;98485.28;;;3.92
28905;BMP280;60848;53.884;11.446;2024-01-15T03:32:38;98488.25;;;3.94
28905;BMP280;60848;53.884;11.446;2024-01-15T03:35:07;98481.63;;;3.93
28905;BMP280;60848;53.884;11.446;2024-01-15T03:37:38;98475.72;;;3.96
28905;BMP280;60848;53.884;11.446;2024-01-15T03:40:07;98485.31;;;3.96
28905;BMP280;60848;53.884;11.446;2024-01-15T03:42:36;98477.94;;;3.98
28905;BMP280;60848;53.884;11.446;2024-01-15T03:45:05;98486.44;;;3.98
28905;BMP280;60848;53.884;11.446;2024-01-15T03:47:34;98483.09;;;3.98
28905;BMP280;60848;53.884;11.446;2024-01-15T03:50:04;98478.31;;;4.00
28905;BMP280;60848;53.884;11.446;2024-01-15T03:52:33;98484.22;;;4.00
28905;BMP280;60848;53.884;11.446;2024-01-15T03:55:01;98475.38;;;4.01
28905;BMP280;60848;53.884;11.446;2024-01-15T03:57:30;98485.34;;;3.99
28905;BMP280;60848;53.884;11.446;2024-01-15T03:59:58;98470.53;;;3.96
28905;BMP280;60848;53.884;11.446;2024-01-15T04:02:27;98482.00;;;3.99
28905;BMP280;60848;53.884;11.446;2024-01-15T04:04:55;98477.94;;;3.98
28905;BMP280;60848;53.884;11.446;2024-01-15T04:07:25;98477.22;;;3.97
28905;BMP280;60848;53.884;11.446;2024-01-15T04:09:54;98475.69;;;3.93
28905;BMP280;60848;53.884;11.446;2024-01-15T04:12:22;98468.31;;;3.95
28905;BMP280;60848;53.884;11.446;2024-01-15T04:14:50;98483.84;;;3.95
28905;BMP280;60848;53.884;11.446;2024-01-15T04:17:19;98482.72;;;3.96
28905;BMP280;60848;53.884;11.446;2024-01-15T04:19:49;98488.25;;;3.94
28905;BMP280;60848;53.884;11.446;2024-01-15T04:22:17;98485.31;;;3.89
28905;BMP280;60848;53.884;11.446;2024-01-15T04:24:47;98488.66;;;3.89
28905;BMP280;60848;53.884;11.446;2024-01-15T04:27:15;98490.47;;;3.89
28905;BMP280;60848;53.884;11.446;2024-01-15T04:29:44;98489.34;;;3.86
28905;BMP280;60848;53.884;11.446;2024-01-15T04:32:13;98490.84;;;3.87
28905;BMP280;60848;53.884;11.446;2024-01-15T04:34:43;98493.81;;;3.89
28905;BMP280;60848;53.884;11.446;2024-01-15T04:37:14;98497.13;;;3.90
28905;BMP280;60848;53.884;11.446;2024-01-15T04:39:43;98491.63;;;3.91
28905;BMP280;60848;53.884;11.446;2024-01-15T04:42:15;98490.44;;;3.85
28905;BMP280;60848;53.884;11.446;2024-01-15T04:44:44;98505.25;;;3.88
28905;BMP280;60848;53.884;11.446;2024-01-15T04:47:12;98515.56;;;3.88
28905;BMP280;60848;53.884;11.446;2024-01-15T04:49:43;98500.81;;;3.89
28905;BMP280;60848;53.884;11.446;2024-01-15T04:52:11;98503.41;;;3.89
28905;BMP280;60848;53.884;11.446;2024-01-15T04:54:42;98506.75;;;3.89
28905;BMP280;60848;53.884;11.446;2024-01-15T04:57:11;98505.63;;;3.90
28905;BMP280;60848;53.884;11.446;2024-01-15T04:59:43;98508.94;;;3.91
28905;BMP280;60848;53.884;11.446;2024-01-15T05:02:12;98512.28;;;3.91
28905;BMP280;60848;53.884;11.446;2024-01-15T05:04:40;98505.22;;;3.92
28905;BMP280;60848;53.884;11.446;2024-01-15T05:07:08;98510.38;;;3.92
28905;BMP280;60848;53.884;11.446;2024-01-15T05:09:37;98503.78;;;3.91
28905;BMP280;60848;53.884;11.446;2024-01-15T05:12:06;98517.78;;;3.90
28905;BMP280;60848;53.884;11.446;2024-01-15T05:14:34;98508.94;;;3.91
28905;BMP280;60848;53.884;11.446;2024-01-15T05:17:07;98512.97;;;3.92
28905;BMP280;60848;53.884;11.446;2024-01-15T05:19:37;98507.13;;;3.91
28905;BMP280;60848;53.884;11.446;2024-01-15T05:22:08;98510.78;;;3.90
28905;BMP280;60848;53.884;11.446;2024-01-15T05:24:37;98519.66;;;3.89
28905;BMP280;60848;53.884;11.446;2024-01-15T05:27:05;98510.78;;;3.87
28905;BMP280;60848;53.884;11.446;2024-01-15T05:29:34;98514.84;;;3.88
28905;BMP280;60848;53.884;11.446;2024-01-15T05:32:02;98518.91;;;3.89
28905;BMP280;60848;53.884;11.446;2024-01-15T05:34:32;98518.88;;;3.85
28905;BMP280;60848;53.884;11.446;2024-01-15T05:37:01;98519.25;;;3.84
28905;BMP280;60848;53.884;11.446;2024-01-15T05:39:29;98517.41;;;3.84
28905;BMP280;60848;53.884;11.446;2024-01-15T05:41:58;98519.25;;;3.84
28905;BMP280;60848;53.884;11.446;2024-01-15T05:44:29;98521.47;;;3.85
28905;BMP280;60848;53.884;11.446;2024-01-15T05:46:59;98523.31;;;3.85
28905;BMP280;60848;53.884;11.446;2024-01-15T05:49:27;98523.69;;;3.87
28905;BMP280;60848;53.884;11.446;2024-01-15T05:51:58;98522.59;;;3.88
28905;BMP280;60848;53.884;11.446;2024-01-15T05:54:26;98535.50;;;3.88
28905;BMP280;60848;53.884;11.446;2024-01-15T05:56:55;98524.09;;;3.89
28905;BMP280;60848;53.884;11.446;2024-01-15T05:59:23;98536.22;;;3.92
28905;BMP280;60848;53.884;11.446;2024-01-15T06:01:52;98539.94;;;3.94
28905;BMP280;60848;53.884;11.446;2024-01-15T06:04:21;98536.28;;;3.95
28905;BMP280;60848;53.884;11.446;2024-01-15T06:06:49;98535.91;;;3.97
28905;BMP280;60848;53.884;11.446;2024-01-15T06:09:19;98549.97;;;3.99
28905;BMP280;60848;53.884;11.446;2024-01-15T06:11:48;98552.94;;;4.01
28905;BMP280;60848;53.884;11.446;2024-01-15T06:14:16;98548.13;;;4.03
28905;BMP280;60848;53.884;11.446;2024-01-15T06:16:45;98556.97;;;4.02
28905;BMP280;60848;53.884;11.446;2024-01-15T06:19:13;98556.22;;;4.02
28905;BMP280;60848;53.884;11.446;2024-01-15T06:21:44;98566.22;;;4.03
28905;BMP280;60848;53.884;11.446;2024-01-15T06:24:12;98572.88;;;4.04
28905;BMP280;60848;53.884;11.446;2024-01-15T06:26:43;98574.38;;;4.05
28905;BMP280;60848;53.884;11.446;2024-01-15T06:29:12;98568.06;;;4.06
28905;BMP280;60848;53.884;11.446;2024-01-15T06:31:42;98574.75;;;4.07
28905;BMP280;60848;53.884;11.446;2024-01-15T06:34:11;98579.91;;;4.07
28905;BMP280;60848;53.884;11.446;2024-01-15T06:36:40;98582.84;;;4.06
28905;BMP280;60848;53.884;11.446;2024-01-15T06:39:11;98589.88;;;4.05
28905;BMP280;60848;53.884;11.446;2024-01-15T06:41:39;98596.50;;;4.06
28905;BMP280;60848;53.884;11.446;2024-01-15T06:44:12;98597.25;;;4.07
28905;BMP280;60848;53.884;11.446;2024-01-15T06:46:42;98598.38;;;4.09
28905;BMP280;60848;53.884;11.446;2024-01-15T06:49:10;98595.44;;;4.11
28905;BMP280;60848;53.884;11.446;2024-01-15T06:51:39;98609.47;;;4.13
28905;BMP280;60848;53.884;11.446;2024-01-15T06:54:10;98609.47;;;4.13
28905;BMP280;60848;53.884;11.446;2024-01-15T06:56:39;98607.59;;;4.14
28905;BMP280;60848;53.884;11.446;2024-01-15T06:59:07;98610.56;;;4.16
28905;BMP280;60848;53.884;11.446;2024-01-15T07:01:37;98613.91;;;4.16
28905;BMP280;60848;53.884;11.446;2024-01-15T07:04:05;98611.69;;;4.18
28905;BMP280;60848;53.884;11.446;2024-01-15T07:06:34;98619.44;;;4.18
28905;BMP280;60848;53.884;11.446;2024-01-15T07:09:02;98620.94;;;4.19
28905;BMP280;60848;53.884;11.446;2024-01-15T07:11:31;98619.44;;;4.18
28905;BMP280;60848;53.884;11.446;2024-01-15T07:13:59;98623.16;;;4.21
28905;BMP280;60848;53.884;11.446;2024-01-15T07:16:27;98630.91;;;4.17
28905;BMP280;60848;53.884;11.446;2024-01-15T07:19:05;98634.59;;;4.20
28905;BMP280;60848;53.884;11.446;2024-01-15T07:21:34;98633.50;;;4.17
28905;BMP280;60848;53.884;11.446;2024-01-15T07:24:03;98618.69;;;4.18
28905;BMP280;60848;53.884;11.446;2024-01-15T07:26:32;98637.91;;;4.17
28905;BMP280;60848;53.884;11.446;2024-01-15T07:29:00;98633.13;;;4.15
28905;BMP280;60848;53.884;11.446;2024-01-15T07:31:32;98634.19;;;4.14
28905;BMP280;60848;53.884;11.446;2024-01-15T07:34:01;98637.91;;;4.13
28905;BMP280;60848;53.884;11.446;2024-01-15T07:36:31;98646.75;;;4.12
28905;BMP280;60848;53.884;11.446;2024-01-15T07:39:02;98644.56;;;4.11
28905;BMP280;60848;53.884;11.446;2024-01-15T07:41:33;98640.13;;;4.11
28905;BMP280;60848;53.884;11.446;2024-01-15T07:44:03;98643.06;;;4.10
28905;BMP280;60848;53.884;11.446;2024-01-15T07:46:32;98643.81;;;4.10
28905;BMP280;60848;53.884;11.446;2024-01-15T07:49:00;98655.28;;;4.09
28905;BMP280;60848;53.884;11.446;2024-01-15T07:51:33;98658.56;;;4.10
28905;BMP280;60848;53.884;11.446;2024-01-15T07:54:01;98657.50;;;4.11
28905;BMP280;60848;53.884;11.446;2024-01-15T07:56:30;98661.91;;;4.14
28905;BMP280;60848;53.884;11.446;2024-01-15T07:58:58;98655.63;;;4.15
28905;BMP280;60848;53.884;11.446;2024-01-15T08:01:27;98655.28;;;4.16
28905;BMP280;60848;53.884;11.446;2024-01-15T08:03:56;98658.22;;;4.15
28905;BMP280;60848;53.884;11.446;2024-01-15T08:06:24;98661.56;;;4.15
28905;BMP280;60848;53.884;11.446;2024-01-15T08:08:54;98661.19;;;4.13
28905;BMP280;60848;53.884;11.446;2024-01-15T08:11:25;98661.91;;;4.14
28905;BMP280;60848;53.884;11.446;2024-01-15T08:13:55;98671.91;;;4.15
28905;BMP280;60848;53.884;11.446;2024-01-15T08:16:25;98679.66;;;4.19
28905;BMP280;60848;53.884;11.446;2024-01-15T08:18:54;98684.47;;;4.20
28905;BMP280;60848;53.884;11.446;2024-01-15T08:21:23;98685.59;;;4.23
28905;BMP280;60848;53.884;11.446;2024-01-15T08:23:52;98680.44;;;4.23
28905;BMP280;60848;53.884;11.446;2024-01-15T08:26:22;98680.06;;;4.24
28905;BMP280;60848;53.884;11.446;2024-01-15T08:28:50;98680.06;;;4.24
28905;BMP280;60848;53.884;11.446;2024-01-15T08:31:21;98683.03;;;4.26
28905;BMP280;60848;53.884;11.446;2024-01-15T08:33:50;98686.75;;;4.29
28905;BMP280;60848;53.884;11.446;2024-01-15T08:36:18;98695.25;;;4.29
28905;BMP280;60848;53.884;11.446;2024-01-15T08:38:47;98693.78;;;4.32
28905;BMP280;60848;53.884;11.446;2024-01-15T08:41:15;98700.81;;;4.35
28905;BMP280;60848;53.884;11.446;2024-01-15T08:43:45;98697.09;;;4.36
28905;BMP280;60848;53.884;11.446;2024-01-15T08:46:14;98702.66;;;4.34
28905;BMP280;60848;53.884;11.446;2024-01-15T08:48:42;98713.38;;;4.36
28905;BMP280;60848;53.884;11.446;2024-01-15T08:51:11;98708.94;;;4.37
28905;BMP280;60848;53.884;11.446;2024-01-15T08:53:39;98707.09;;;4.37
28905;BMP280;60848;53.884;11.446;2024-01-15T08:56:08;98713.75;;;4.38
28905;BMP280;60848;53.884;11.446;2024-01-15T08:58:36;98713.00;;;4.38
28905;BMP280;60848;53.884;11.446;2024-01-15T09:01:06;98711.91;;;4.39
28905;BMP280;60848;53.884;11.446;2024-01-15T09:03:35;98715.25;;;4.43
28905;BMP280;60848;53.884;11.446;2024-01-15T09:06:04;98720.81;;;4.41
28905;BMP280;60848;53.884;11.446;2024-01-15T09:08:33;98729.34;;;4.45
28905;BMP280;60848;53.884;11.446;2024-01-15T09:11:02;98728.22;;;4.50
28905;BMP280;60848;53.884;11.446;2024-01-15T09:13:30;98730.09;;;4.53
28905;BMP280;60848;53.884;11.446;2024-01-15T09:15:59;98735.63;;;4.55
28905;BMP280;60848;53.884;11.446;2024-01-15T09:18:29;98742.69;;;4.58
28905;BMP280;60848;53.884;11.446;2024-01-15T09:21:03;98750.09;;;4.59
28905;BMP280;60848;53.884;11.446;2024-01-15T09:23:32;98756.78;;;4.64
28905;BMP280;60848;53.884;11.446;2024-01-15T09:26:00;98757.53;;;4.68
28905;BMP280;60848;53.884;11.446;2024-01-15T09:28:29;98769.00;;;4.74
28905;BMP280;60848;53.884;11.446;2024-01-15T09:30:57;98770.88;;;4.77
28905;BMP280;60848;53.884;11.446;2024-01-15T09:33:26;98774.94;;;4.78
28905;BMP280;60848;53.884;11.446;2024-01-15T09:36:01;98783.09;;;4.80
28905;BMP280;60848;53.884;11.446;2024-01-15T09:38:33;98790.47;;;4.78
28905;BMP280;60848;53.884;11.446;2024-01-15T09:41:02;98780.84;;;4.79
28905;BMP280;60848;53.884;11.446;2024-01-15T09:43:31;98789.72;;;4.78
28905;BMP280;60848;53.884;11.446;2024-01-15T09:45:59;98803.75;;;4.77
28905;BMP280;60848;53.884;11.446;2024-01-15T09:48:28;98812.28;;;4.77
28905;BMP280;60848;53.884;11.446;2024-01-15T09:51:01;98813.00;;;4.74
28905;BMP280;60848;53.884;11.446;2024-01-15T09:53:30;98822.97;;;4.72
28905;BMP280;60848;53.884;11.446;2024-01-15T09:55:58;98822.22;;;4.72
28905;BMP280;60848;53.884;11.446;2024-01-15T09:58:27;98831.06;;;4.70
28905;BMP280;60848;53.884;11.446;2024-01-15T10:00:56;98825.91;;;4.70
28905;BMP280;60848;53.884;11.446;2024-01-15T10:03:25;98825.53;;;4.68
28905;BMP280;60848;53.884;11.446;2024-01-15T10:05:57;98828.16;;;4.72
28905;BMP280;60848;53.884;11.446;2024-01-15T10:08:28;98839.22;;;4.72
28905;BMP280;60848;53.884;11.446;2024-01-15T10:10:56;98834.81;;;4.70
28905;BMP280;60848;53.884;11.446;2024-01-15T10:13:24;98839.97;;;4.66
28905;BMP280;60848;53.884;11.446;2024-01-15T10:15:55;98839.66;;;4.78
28905;BMP280;60848;53.884;11.446;2024-01-15T10:18:27;98835.25;;;4.82
28905;BMP280;60848;53.884;11.446;2024-01-15T10:20:56;98840.44;;;4.82
28905;BMP280;60848;53.884;11.446;2024-01-15T10:23:25;98850.78;;;4.82
28905;BMP280;60848;53.884;11.446;2024-01-15T10:25:56;98859.25;;;4.83
28905;BMP280;60848;53.884;11.446;2024-01-15T10:28:26;98845.22;;;4.80
28905;BMP280;60848;53.884;11.446;2024-01-15T10:30:57;98865.16;;;4.76
28905;BMP280;60848;53.884;11.446;2024-01-15T10:33:26;98857.00;;;4.74
28905;BMP280;60848;53.884;11.446;2024-01-15T10:35:56;98866.25;;;4.75
28905;BMP280;60848;53.884;11.446;2024-01-15T10:38:27;98861.81;;;4.76
28905;BMP280;60848;53.884;11.446;2024-01-15T10:40:57;98872.19;;;4.76
28905;BMP280;60848;53.884;11.446;2024-01-15T10:43:25;98869.25;;;4.81
28905;BMP280;60848;53.884;11.446;2024-01-15T10:45:55;98870.38;;;4.87
28905;BMP280;60848;53.884;11.446;2024-01-15T10:48:24;98865.63;;;4.92
28905;BMP280;60848;53.884;11.446;2024-01-15T10:50:56;98870.06;;;4.95
28905;BMP280;60848;53.884;11.446;2024-01-15T10:53:27;98876.75;;;5.00
28905;BMP280;60848;53.884;11.446;2024-01-15T10:55:58;98876.00;;;4.99
28905;BMP280;60848;53.884;11.446;2024-01-15T10:58:28;98880.47;;;5.02
28905;BMP280;60848;53.884;11.446;2024-01-15T11:00:59;98885.28;;;5.04
28905;BMP280;60848;53.884;11.446;2024-01-15T11:03:28;98877.13;;;5.02
28905;BMP280;60848;53.884;11.446;2024-01-15T11:05:59;98888.97;;;5.06
28905;BMP280;60848;53.884;11.446;2024-01-15T11:08:28;98886.78;;;5.08
28905;BMP280;60848;53.884;11.446;2024-01-15T11:10:59;98887.13;;;5.07
28905;BMP280;60848;53.884;11.446;2024-01-15T11:13:40;98896.44;;;5.15
28905;BMP280;60848;53.884;11.446;2024-01-15T11:16:12;98900.13;;;5.17
28905;BMP280;60848;53.884;11.446;2024-01-15T11:18:41;98890.16;;;5.19
28905;BMP280;60848;53.884;11.446;2024-01-15T11:21:20;98899.78;;;5.22
28905;BMP280;60848;53.884;11.446;2024-01-15T11:23:50;98912.38;;;5.24
28905;BMP280;60848;53.884;11.446;2024-01-15T11:26:33;98909.78;;;5.27
28905;BMP280;60848;53.884;11.446;2024-01-15T11:29:03;98913.50;;;5.30
28905;BMP280;60848;53.884;11.446;2024-01-15T11:31:57;98915.41;;;5.33
28905;BMP280;60848;53.884;11.446;2024-01-15T11:34:49;98916.47;;;5.32
28905;BMP280;60848;53.884;11.446;2024-01-15T11:37:19;98919.44;;;5.30
28905;BMP280;60848;53.884;11.446;2024-01-15T11:39:47;98920.19;;;5.31
28905;BMP280;60848;53.884;11.446;2024-01-15T11:42:18;98930.56;;;5.31
28905;BMP280;60848;53.884;11.446;2024-01-15T11:44:49;98936.81;;;5.26
28905;BMP280;60848;53.884;11.446;2024-01-15T11:47:33;98933.84;;;5.24
28905;BMP280;60848;53.884;11.446;2024-01-15T11:50:07;98935.69;;;5.20
28905;BMP280;60848;53.884;11.446;2024-01-15T11:52:38;98945.66;;;5.22
28905;BMP280;60848;53.884;11.446;2024-01-15T11:55:19;98937.91;;;5.18
28905;BMP280;60848;53.884;11.446;2024-01-15T11:57:51;98943.81;;;5.19
28905;BMP280;60848;53.884;11.446;2024-01-15T12:00:22;98940.47;;;5.15
28905;BMP280;60848;53.884;11.446;2024-01-15T12:02:50;98952.63;;;5.11
28905;BMP280;60848;53.884;11.446;2024-01-15T12:05:22;98948.94;;;5.08
28905;BMP280;60848;53.884;11.446;2024-01-15T12:07:53;98947.44;;;5.07
28905;BMP280;60848;53.884;11.446;2024-01-15T12:10:24;98955.94;;;5.08
28905;BMP280;60848;53.884;11.446;2024-01-15T12:13:05;98949.31;;;5.10
28905;BMP280;60848;53.884;11.446;2024-01-15T12:15:33;98953.75;;;5.10
28905;BMP280;60848;53.884;11.446;2024-01-15T12:18:02;98946.72;;;5.10
28905;BMP280;60848;53.884;11.446;2024-01-15T12:20:31;98967.41;;;5.07
28905;BMP280;60848;53.884;11.446;2024-01-15T12:23:01;98966.31;;;5.08
28905;BMP280;60848;53.884;11.446;2024-01-15T12:25:34;98967.00;;;5.05
28905;BMP280;60848;53.884;11.446;2024-01-15T12:28:06;98970.34;;;5.02
28905;BMP280;60848;53.884;11.446;2024-01-15T12:30:35;98974.09;;;5.04
28905;BMP280;60848;53.884;11.446;2024-01-15T12:33:05;98970.34;;;5.05
28905;BMP280;60848;53.884;11.446;2024-01-15T12:35:36;98972.94;;;5.05
28905;BMP280;60848;53.884;11.446;2024-01-15T12:38:04;98967.75;;;5.05
28905;BMP280;60848;53.884;11.446;2024-01-15T12:40:33;98983.69;;;5.07
28905;BMP280;60848;53.884;11.446;2024-01-15T12:43:06;98982.94;;;5.07
28905;BMP280;60848;53.884;11.446;2024-01-15T12:45:35;98983.69;;;5.07
28905;BMP280;60848;53.884;11.446;2024-01-15T12:48:05;98982.94;;;5.07
28905;BMP280;60848;53.884;11.446;2024-01-15T12:50:34;98980.72;;;5.09
28905;BMP280;60848;53.884;11.446;2024-01-15T12:53:03;98988.16;;;5.10
28905;BMP280;60848;53.884;11.446;2024-01-15T12:55:31;98994.44;;;5.09
28905;BMP280;60848;53.884;11.446;2024-01-15T12:58:01;98993.69;;;5.09
28905;BMP280;60848;53.884;11.446;2024-01-15T13:00:31;98998.13;;;5.08
28905;BMP280;60848;53.884;11.446;2024-01-15T13:03:00;99003.25;;;5.05
28905;BMP280;60848;53.884;11.446;2024-01-15T13:05:31;99009.59;;;5.04
28905;BMP280;60848;53.884;11.446;2024-01-15T13:08:01;99015.47;;;5.01
28905;BMP280;60848;53.884;11.446;2024-01-15T13:10:33;99021.03;;;5.03
28905;BMP280;60848;53.884;11.446;2024-01-15T13:13:01;99016.97;;;5.02
28905;BMP280;60848;53.884;11.446;2024-01-15T13:15:31;99032.16;;;5.03
28905;BMP280;60848;53.884;11.446;2024-01-15T13:18:00;99021.03;;;5.03
28905;BMP280;60848;53.884;11.446;2024-01-15T13:20:28;99025.47;;;5.06
28905;BMP280;60848;53.884;11.446;2024-01-15T13:22:57;99036.25;;;5.04
28905;BMP280;60848;53.884;11.446;2024-01-15T13:25:25;99033.25;;;5.06
28905;BMP280;60848;53.884;11.446;2024-01-15T13:27:54;99041.03;;;5.06
28905;BMP280;60848;53.884;11.446;2024-01-15T13:30:22;99042.50;;;5.07
28905;BMP280;60848;53.884;11.446;2024-01-15T13:32:52;99038.44;;;5.06
28905;BMP280;60848;53.884;11.446;2024-01-15T13:35:21;99039.53;;;5.05
28905;BMP280;60848;53.884;11.446;2024-01-15T13:37:50;99032.50;;;5.05
28905;BMP280;60848;53.884;11.446;2024-01-15T13:40:20;99043.94;;;5.01
28905;BMP280;60848;53.884;11.446;2024-01-15T13:42:49;99063.16;;;4.96
28905;BMP280;60848;53.884;11.446;2024-01-15T13:45:20;99060.56;;;4.96
28905;BMP280;60848;53.884;11.446;2024-01-15T13:47:52;99065.69;;;4.93
28905;BMP280;60848;53.884;11.446;2024-01-15T13:50:21;99064.59;;;4.90
28905;BMP280;60848;53.884;11.446;2024-01-15T13:52:52;99073.06;;;4.87
28905;BMP280;60848;53.884;11.446;2024-01-15T13:55:23;99069.31;;;4.81
28905;BMP280;60848;53.884;11.446;2024-01-15T13:57:52;99074.81;;;4.76
28905;BMP280;60848;53.884;11.446;2024-01-15T14:00:21;99078.50;;;4.75
28905;BMP280;60848;53.884;11.446;2024-01-15T14:02:52;99078.13;;;4.77
28905;BMP280;60848;53.884;11.446;2024-01-15T14:05:20;99074.47;;;4.78
28905;BMP280;60848;53.884;11.446;2024-01-15T14:07:49;99081.47;;;4.77
28905;BMP280;60848;53.884;11.446;2024-01-15T14:10:18;99081.84;;;4.76
28905;BMP280;60848;53.884;11.446;2024-01-15T14:12:47;99088.81;;;4.72
28905;BMP280;60848;53.884;11.446;2024-01-15T14:15:16;99098.41;;;4.71
28905;BMP280;60848;53.884;11.446;2024-01-15T14:17:46;99099.84;;;4.65
28905;BMP280;60848;53.884;11.446;2024-01-15T14:20:16;99098.00;;;4.62
28905;BMP280;60848;53.884;11.446;2024-01-15T14:22:48;99103.09;;;4.58